Time;durP1;ratioP1;P1;durP2;ratioP2;P2;SDS_P1;SDS_P2;PMS_P1;PMS_P2;Temp;Humidity;BMP_temperature;BMP_pressure;BME280_temperature;BME280_humidity;BME280_pressure;Samples;Min_cycle;Max_cycle;Signal;HPM_P1;HPM_P2
2023/04/05 00:02:12;;;;;;;20.38;12.98;;;;;;;7.93;48.27;101429.16;4966823;28;20756;-81
2023/04/05 00:04:49;;;;;;;22.95;12.90;;;;;;;7.88;48.46;101425.97;4965290;28;20050;-83
2023/04/05 00:07:20;;;;;;;26.25;12.20;;;;;;;7.83;48.89;101431.53;4981052;28;20132;-81
2023/04/05 00:09:55;;;;;;;22.17;13.82;;;;;;;7.82;47.96;101415.78;4981766;28;20455;-81
2023/04/05 00:12:22;;;;;;;22.95;13.20;;;;;;;7.91;48.06;101420.47;4985210;28;20060;-81
2023/04/05 00:14:56;;;;;;;24.65;12.32;;;;;;;7.91;48.00;101407.25;4967046;28;20512;-82
2023/04/05 00:17:26;;;;;;;21.67;12.40;;;;;;;7.93;47.72;101430.00;4969867;28;20206;-81
2023/04/05 00:20:00;;;;;;;24.75;14.00;;;;;;;7.64;48.13;101364.94;4967887;28;20060;-82
2023/04/05 00:22:35;;;;;;;25.40;14.32;;;;;;;7.33;48.03;101324.66;4969301;28;20081;-82
2023/04/05 00:25:02;;;;;;;22.45;12.80;;;;;;;7.96;48.02;101422.81;4964942;28;20058;-81
2023/04/05 00:27:32;;;;;;;24.05;13.20;;;;;;;7.56;48.23;101373.38;4981026;28;20052;-81
2023/04/05 00:30:02;;;;;;;25.23;14.02;;;;;;;7.71;48.59;101424.38;4978899;28;20054;-81
2023/04/05 00:32:35;;;;;;;24.13;13.95;;;;;;;7.54;49.52;101416.69;4968092;28;20137;-84
2023/04/05 00:35:15;;;;;;;22.63;13.05;;;;;;;7.48;49.64;101420.56;4965600;28;20307;-81
2023/04/05 00:37:44;;;;;;;29.73;13.85;;;;;;;7.49;49.19;101415.19;4973417;28;20064;-83
2023/04/05 00:40:11;;;;;;;30.85;14.52;;;;;;;7.51;49.63;101427.47;4982242;28;20050;-83
2023/04/05 00:42:41;;;;;;;28.42;13.63;;;;;;;7.54;49.40;101421.97;5000293;28;20141;-82
2023/04/05 00:45:09;;;;;;;25.63;12.57;;;;;;;7.28;49.20;101380.41;4980012;28;20105;-84
2023/04/05 00:47:36;;;;;;;22.00;12.77;;;;;;;7.62;48.40;101422.31;4964562;28;20522;-83
2023/04/05 00:50:06;;;;;;;27.17;14.40;;;;;;;7.58;48.47;101403.19;4960239;28;20077;-83
2023/04/05 00:52:34;;;;;;;26.80;15.48;;;;;;;7.64;48.70;101431.00;4966424;28;20058;-84
2023/04/05 00:55:01;;;;;;;35.40;14.77;;;;;;;6.63;49.07;101283.25;4966489;28;20050;-82
2023/04/05 00:57:40;;;;;;;25.77;14.88;;;;;;;7.30;48.88;101379.44;4963823;28;20484;-85
2023/04/05 01:00:14;;;;;;;24.73;14.35;;;;;;;7.49;49.21;101425.75;4961221;28;20085;-82
2023/04/05 01:02:48;;;;;;;26.35;13.77;;;;;;;7.04;48.78;101343.19;4963583;28;20050;-83
2023/04/05 01:05:37;;;;;;;27.60;14.52;;;;;;;7.43;49.33;101420.88;4964961;28;20073;-81
2023/04/05 01:08:14;;;;;;;21.90;14.18;;;;;;;7.04;49.39;101380.13;4974842;28;20105;-82
2023/04/05 01:10:45;;;;;;;39.30;14.75;;;;;;;6.78;49.44;101336.03;4970873;28;20250;-83
2023/04/05 01:13:20;;;;;;;24.50;14.05;;;;;;;7.40;49.05;101399.94;4969841;28;20065;-83
2023/04/05 01:15:50;;;;;;;27.73;13.18;;;;;;;6.71;48.92;101300.41;4983865;28;20393;-82
2023/04/05 01:18:17;;;;;;;24.48;13.90;;;;;;;6.67;49.73;101327.91;4982581;28;20407;-80
2023/04/05 01:20:58;;;;;;;25.80;14.45;;;;;;;6.29;49.76;101273.91;4975971;28;20058;-82
2023/04/05 01:23:57;;;;;;;24.77;13.95;;;;;;;7.07;49.78;101414.28;4978380;28;20309;-82
2023/04/05 01:26:41;;;;;;;24.27;13.88;;;;;;;7.10;50.29;101418.50;4986057;28;20065;-83
2023/04/05 01:29:36;;;;;;;32.50;14.10;;;;;;;7.05;50.59;101415.31;4999110;28;20041;-83
2023/04/05 01:32:39;;;;;;;19.65;13.63;;;;;;;7.13;50.47;101417.47;4984291;28;20053;-82
2023/04/05 01:35:28;;;;;;;23.80;13.88;;;;;;;7.19;50.01;101417.09;4997452;28;20046;-82
2023/04/05 01:38:01;;;;;;;19.60;13.07;;;;;;;7.06;50.58;101409.06;4968752;28;20401;-82
2023/04/05 01:40:31;;;;;;;21.50;12.55;;;;;;;6.23;51.15;101281.31;4961669;28;20442;-82
2023/04/05 01:43:04;;;;;;;22.10;12.18;;;;;;;6.35;50.94;101310.44;4960437;28;20062;-82
2023/04/05 01:45:41;;;;;;;22.85;13.25;;;;;;;6.70;50.76;101351.44;4962626;28;20062;-84
2023/04/05 01:48:12;;;;;;;22.33;12.77;;;;;;;6.93;50.35;101398.41;4960566;28;20050;-82
2023/04/05 01:50:39;;;;;;;20.80;12.85;;;;;;;6.88;50.11;101382.00;4968552;28;20259;-82
2023/04/05 01:53:07;;;;;;;27.67;13.05;;;;;;;7.10;50.08;101410.59;4958907;28;20327;-82
2023/04/05 01:55:34;;;;;;;23.23;12.98;;;;;;;6.92;50.27;101385.31;4964085;28;20054;-82
2023/04/05 01:58:01;;;;;;;18.98;12.27;;;;;;;6.70;50.61;101356.72;4963978;28;20105;-82
2023/04/05 02:00:28;;;;;;;18.15;12.40;;;;;;;6.89;50.56;101396.91;4965716;28;20408;-83
2023/04/05 02:02:58;;;;;;;19.77;12.50;;;;;;;6.79;51.32;101387.84;4978335;28;20050;-79
2023/04/05 02:05:24;;;;;;;22.15;11.90;;;;;;;6.98;51.25;101416.63;4991968;28;20178;-83
2023/04/05 02:07:51;;;;;;;26.55;11.77;;;;;;;6.83;50.76;101395.50;4970934;28;20339;-82
2023/04/05 02:10:23;;;;;;;21.38;11.60;;;;;;;7.01;50.56;101419.06;4971774;28;20496;-82
2023/04/05 02:12:53;;;;;;;23.73;11.32;;;;;;;6.60;50.50;101346.75;4974099;28;20046;-81
2023/04/05 02:15:34;;;;;;;17.75;10.85;;;;;;;6.86;50.67;101394.44;4986095;28;20049;-80
2023/04/05 02:18:06;;;;;;;20.80;11.55;;;;;;;6.94;50.64;101402.78;4989061;28;20065;-83
2023/04/05 02:20:40;;;;;;;21.90;11.85;;;;;;;6.83;51.32;101384.94;4991936;28;20046;-82
2023/04/05 02:23:10;;;;;;;22.63;12.32;;;;;;;6.77;50.34;101358.06;4992887;28;20056;-79
2023/04/05 02:25:39;;;;;;;;;;;;;;;7.10;50.73;101413.22;5007120;28;20303;-82
2023/04/05 02:28:10;;;;;;;24.13;11.93;;;;;;;6.38;50.18;101272.47;4991634;28;20166;-82
2023/04/05 02:30:37;;;;;;;22.20;13.30;;;;;;;6.52;50.23;101290.13;4991215;28;20067;-83
2023/04/05 02:33:09;;;;;;;22.85;12.55;;;;;;;7.38;48.93;101383.31;4994664;28;20061;-80
2023/04/05 02:35:36;;;;;;;24.95;12.45;;;;;;;7.22;48.91;101372.00;4972371;28;20274;-81
2023/04/05 02:38:13;;;;;;;19.10;11.98;;;;;;;7.26;50.54;101415.78;4977705;28;20113;-83
2023/04/05 02:40:47;;;;;;;23.15;12.70;;;;;;;6.32;50.10;101294.81;4964121;28;20065;-81
2023/04/05 02:43:17;;;;;;;21.77;11.65;;;;;;;7.05;49.72;101408.22;4987987;28;20503;-82
2023/04/05 02:45:48;;;;;;;19.13;12.05;;;;;;;6.88;50.03;101403.13;4972105;28;20050;-81
2023/04/05 02:48:33;;;;;;;24.08;12.85;;;;;;;7.03;49.82;101420.66;4972130;28;20046;-81
2023/04/05 02:51:05;;;;;;;22.65;13.30;;;;;;;7.01;49.46;101409.34;4972183;28;20154;-81
2023/04/05 02:53:34;;;;;;;27.27;13.55;;;;;;;6.87;49.84;101398.81;4972446;28;20305;-81
2023/04/05 02:56:03;;;;;;;21.15;13.65;;;;;;;6.67;50.48;101399.13;4970234;28;20643;-82
2023/04/05 02:58:32;;;;;;;21.27;13.13;;;;;;;6.40;50.74;101370.81;4967051;28;20072;-82
2023/04/05 03:01:00;;;;;;;30.67;13.50;;;;;;;6.43;50.79;101389.09;4970538;28;20046;-80
2023/04/05 03:03:33;;;;;;;19.92;12.45;;;;;;;6.42;50.94;101392.69;4985627;28;20152;-81
2023/04/05 03:06:08;;;;;;;20.67;12.85;;;;;;;6.54;51.28;101415.69;4983469;28;20129;-82
2023/04/05 03:08:47;;;;;;;22.85;12.05;;;;;;;5.95;51.98;101322.50;4969759;28;20320;-79
2023/04/05 03:11:14;;;;;;;23.77;11.85;;;;;;;6.46;52.03;101423.22;4972223;28;20057;-83
2023/04/05 03:13:43;;;;;;;20.90;12.40;;;;;;;6.35;52.27;101405.38;4985967;28;20503;-83
2023/04/05 03:16:09;;;;;;;19.23;11.73;;;;;;;6.43;51.92;101423.38;4994599;28;20057;-80
2023/04/05 03:18:41;;;;;;;20.45;12.05;;;;;;;6.20;51.94;101380.75;4993073;28;20491;-83
2023/04/05 03:21:10;;;;;;;15.20;11.30;;;;;;;6.26;52.11;101395.34;4993532;28;20120;-82
2023/04/05 03:23:45;;;;;;;16.75;11.52;;;;;;;6.34;52.39;101423.94;4993288;28;20058;-83
2023/04/05 03:26:23;;;;;;;24.38;11.38;;;;;;;5.92;53.00;101352.50;4993256;28;20056;-81
2023/04/05 03:28:53;;;;;;;15.57;11.60;;;;;;;6.43;51.84;101426.03;5009437;28;20386;-82
2023/04/05 03:31:20;;;;;;;18.25;10.45;;;;;;;5.97;51.71;101337.28;5006486;28;20053;-81
2023/04/05 03:33:47;;;;;;;21.50;11.07;;;;;;;6.43;51.53;101404.91;4970580;28;20117;-84
2023/04/05 03:36:42;;;;;;;16.60;10.82;;;;;;;6.52;51.06;101417.56;4980579;28;20250;-83
2023/04/05 03:39:12;;;;;;;18.48;10.85;;;;;;;6.43;51.52;101415.47;4988838;28;20429;-83
2023/04/05 03:41:42;;;;;;;18.77;9.98;;;;;;;6.09;51.99;101358.59;4985556;28;20129;-81
2023/04/05 03:44:13;;;;;;;14.80;11.00;;;;;;;6.13;52.06;101374.13;4991825;28;20173;-82
2023/04/05 03:46:44;;;;;;;18.55;10.25;;;;;;;6.39;51.27;101419.25;4989571;28;20392;-82
2023/04/05 03:49:16;;;;;;;15.00;10.20;;;;;;;6.16;50.80;101363.41;4993005;28;20155;-83
2023/04/05 03:51:43;;;;;;;19.83;11.13;;;;;;;6.42;50.58;101408.50;4992246;28;20046;-84
2023/04/05 03:54:10;;;;;;;17.45;10.32;;;;;;;6.38;50.67;101399.06;4989479;28;20125;-82
2023/04/05 03:56:42;;;;;;;16.77;10.30;;;;;;;6.48;51.25;101409.94;4987982;28;20049;-81
2023/04/05 03:59:09;;;;;;;14.23;10.32;;;;;;;6.14;51.08;101360.03;4991131;28;20439;-82
2023/04/05 04:01:39;;;;;;;15.15;11.07;;;;;;;5.47;50.87;101254.06;4989905;28;20144;-82
2023/04/05 04:04:06;;;;;;;17.83;10.85;;;;;;;6.43;50.81;101423.38;4988015;28;20344;-82
2023/04/05 04:06:40;;;;;;;17.73;11.45;;;;;;;6.41;50.92;101412.09;4975066;28;20047;-83
2023/04/05 04:09:08;;;;;;;15.15;11.02;;;;;;;6.48;49.26;101412.56;4981715;28;20065;-82
2023/04/05 04:11:34;;;;;;;14.30;10.25;;;;;;;5.96;50.64;101332.94;4970149;28;20693;-81
2023/04/05 04:14:01;;;;;;;18.05;9.75;;;;;;;6.46;50.16;101407.41;4977030;28;20144;-80
2023/04/05 04:16:48;;;;;;;16.05;10.43;;;;;;;6.53;50.52;101414.03;4984148;28;20053;-83
2023/04/05 04:19:22;;;;;;;19.70;10.73;;;;;;;6.49;50.98;101406.38;4988761;28;20073;-80
2023/04/05 04:21:51;;;;;;;15.40;10.35;;;;;;;6.52;49.66;101406.19;4988807;28;20046;-82
2023/04/05 04:24:18;;;;;;;19.02;10.88;;;;;;;6.52;49.83;101396.47;5005516;28;20057;-82
2023/04/05 04:26:53;;;;;;;13.82;10.18;;;;;;;6.43;50.43;101407.56;4984818;28;20135;-82
2023/04/05 04:29:29;;;;;;;14.95;9.75;;;;;;;6.42;50.46;101403.25;5000528;28;20386;-81
2023/04/05 04:31:59;;;;;;;20.58;10.77;;;;;;;6.51;49.77;101413.25;4982024;28;20504;-79
2023/04/05 04:34:33;;;;;;;17.77;10.57;;;;;;;6.36;49.53;101385.13;4967084;28;20046;-83
2023/04/05 04:37:01;;;;;;;16.50;10.27;;;;;;;6.50;49.41;101406.25;4982633;28;20631;-81
2023/04/05 04:39:47;;;;;;;24.83;10.27;;;;;;;6.49;49.32;101404.56;4986395;28;20042;-81
2023/04/05 04:42:18;;;;;;;14.82;9.65;;;;;;;6.36;49.15;101382.47;4987159;28;20165;-83
2023/04/05 04:44:45;;;;;;;18.80;10.35;;;;;;;6.32;48.98;101373.91;4985099;28;20124;-83
2023/04/05 04:47:16;;;;;;;14.98;9.82;;;;;;;6.48;49.00;101400.25;4984270;28;20054;-81
2023/04/05 04:49:46;;;;;;;19.38;10.35;;;;;;;6.44;49.67;101390.81;4990079;28;20104;-82
2023/04/05 04:52:16;;;;;;;17.20;10.43;;;;;;;6.17;49.46;101344.03;4981629;28;20054;-81
2023/04/05 04:54:46;;;;;;;13.23;9.95;;;;;;;6.06;47.98;101335.03;4993093;28;20502;-82
2023/04/05 04:57:14;;;;;;;17.75;10.10;;;;;;;6.55;48.85;101412.16;4986773;28;20423;-83
2023/04/05 04:59:44;;;;;;;13.60;9.15;;;;;;;6.32;48.29;101368.66;4972905;28;20377;-81
2023/04/05 05:02:16;;;;;;;18.40;9.48;;;;;;;6.50;48.16;101392.22;4980456;28;20138;-80
2023/04/05 05:04:43;;;;;;;26.58;16.20;;;;;;;6.17;47.40;101348.47;4967718;28;20550;-79
2023/04/05 05:07:12;;;;;;;17.25;9.98;;;;;;;6.63;47.61;101412.53;4970394;28;20511;-80
2023/04/05 05:09:51;;;;;;;17.13;9.73;;;;;;;6.54;47.78;101394.59;4962881;28;20694;-79
2023/04/05 05:12:20;;;;;;;17.00;9.02;;;;;;;6.56;47.61;101399.78;4968183;28;20500;-79
2023/04/05 05:14:50;;;;;;;19.42;9.80;;;;;;;6.73;48.12;101427.81;5001745;28;20667;-81
2023/04/05 05:17:22;;;;;;;17.60;10.85;;;;;;;6.76;47.73;101419.72;4994127;28;20053;-81
2023/04/05 05:19:52;;;;;;;13.15;9.70;;;;;;;6.37;47.43;101356.03;4968844;28;20474;-80
2023/04/05 05:22:23;;;;;;;16.80;10.82;;;;;;;6.83;47.30;101421.03;4971953;28;20062;-80
2023/04/05 05:24:50;;;;;;;18.27;10.15;;;;;;;6.82;47.21;101419.31;4991408;28;20064;-82
2023/04/05 05:27:35;;;;;;;16.08;10.35;;;;;;;6.87;46.95;101429.59;4985645;28;20042;-81
2023/04/05 05:30:14;;;;;;;20.63;10.52;;;;;;;6.91;47.08;101417.94;4976223;28;20760;-79
2023/04/05 05:32:47;;;;;;;22.00;9.68;;;;;;;6.85;46.95;101429.72;4980691;28;20058;-80
2023/04/05 05:35:16;;;;;;;14.55;10.38;;;;;;;6.47;47.39;101360.75;4976775;28;20045;-81
2023/04/05 05:37:48;;;;;;;20.35;10.93;;;;;;;6.91;47.26;101433.78;4969983;28;20054;-79
2023/04/05 05:40:29;;;;;;;24.90;10.32;;;;;;;6.87;47.30;101405.84;4987235;28;20085;-81
2023/04/05 05:43:05;;;;;;;18.85;10.75;;;;;;;7.05;46.32;101432.00;4987506;28;20657;-80
2023/04/05 05:45:33;;;;;;;19.88;10.68;;;;;;;7.10;46.43;101439.63;5009476;28;20324;-79
2023/04/05 05:48:03;;;;;;;20.55;11.02;;;;;;;7.02;46.47;101420.78;4994468;28;20050;-81
2023/04/05 05:50:39;;;;;;;17.58;10.57;;;;;;;7.21;45.85;101431.06;4990146;28;20128;-80
2023/04/05 05:53:12;;;;;;;16.95;10.88;;;;;;;6.98;45.70;101392.84;4984943;28;20406;-82
2023/04/05 05:55:41;;;;;;;20.58;10.93;;;;;;;7.14;45.64;101412.09;4991532;28;20058;-80
2023/04/05 05:58:08;;;;;;;17.58;10.38;;;;;;;7.05;45.43;101400.31;4991889;28;20054;-82
2023/04/05 06:00:35;;;;;;;16.63;10.98;;;;;;;6.99;45.64;101379.59;5006626;28;20054;-81
2023/04/05 06:03:03;;;;;;;15.38;10.48;;;;;;;7.35;45.47;101425.75;4991368;28;20137;-80
2023/04/05 06:05:30;;;;;;;18.15;9.95;;;;;;;7.43;45.30;101441.16;4981964;28;20049;-81
2023/04/05 06:07:57;;;;;;;21.08;10.63;;;;;;;7.25;45.09;101406.16;4995803;28;20204;-81
2023/04/05 06:10:27;;;;;;;14.32;10.35;;;;;;;7.57;44.38;101445.56;5009443;28;20053;-80
2023/04/05 06:12:58;;;;;;;18.17;10.98;;;;;;;7.53;44.09;101436.97;4996702;28;20352;-79
2023/04/05 06:15:31;;;;;;;19.88;11.02;;;;;;;7.38;44.08;101391.25;4992325;28;20060;-79
2023/04/05 06:17:59;;;;;;;19.88;10.52;;;;;;;7.41;44.09;101396.31;4987536;28;20496;-81
2023/04/05 06:20:43;;;;;;;16.65;11.10;;;;;;;7.75;44.05;101439.13;4977199;28;20293;-80
2023/04/05 06:23:15;;;;;;;16.13;10.63;;;;;;;7.81;43.61;101440.50;4984309;28;20092;-82
2023/04/05 06:25:42;;;;;;;22.40;10.70;;;;;;;7.80;43.26;101405.31;4972600;28;20416;-81
2023/04/05 06:28:18;;;;;;;20.75;10.55;;;;;;;8.00;43.39;101430.44;4987353;28;20086;-81
2023/04/05 06:30:45;;;;;;;23.27;10.70;;;;;;;8.08;43.14;101436.09;4986925;28;20070;-82
2023/04/05 06:33:12;;;;;;;15.13;9.68;;;;;;;7.87;41.40;101396.03;4976666;28;20492;-82
2023/04/05 06:35:50;;;;;;;19.08;10.48;;;;;;;8.19;42.20;101429.25;4984263;28;20045;-80
2023/04/05 06:38:18;;;;;;;14.15;9.93;;;;;;;8.01;41.15;101391.63;4978025;28;20052;-81
2023/04/05 06:40:59;;;;;;;14.93;9.75;;;;;;;7.99;41.33;101391.75;4979733;28;20053;-82
2023/04/05 06:43:28;;;;;;;18.17;9.85;;;;;;;8.27;41.52;101441.00;4970762;28;20054;-80
2023/04/05 06:45:59;;;;;;;21.25;9.85;;;;;;;8.28;41.65;101437.44;4969822;28;20420;-80
2023/04/05 06:48:28;;;;;;;17.52;10.50;;;;;;;8.35;41.89;101438.72;4968254;28;20141;-81
2023/04/05 06:51:04;;;;;;;15.27;10.48;;;;;;;8.08;41.15;101407.00;4969609;28;20038;-82
2023/04/05 06:53:31;;;;;;;15.98;10.77;;;;;;;7.69;41.72;101328.50;4972590;28;20295;-80
2023/04/05 06:56:17;;;;;;;19.70;10.45;;;;;;;8.07;41.51;101399.16;4970497;28;20047;-81
2023/04/05 06:58:46;;;;;;;27.97;11.27;;;;;;;7.96;42.49;101362.00;4985652;28;20054;-80
2023/04/05 07:01:16;;;;;;;20.27;11.27;;;;;;;8.34;41.10;101426.44;4984686;28;20048;-81
2023/04/05 07:03:44;;;;;;;18.73;10.32;;;;;;;8.46;41.85;101437.19;4994288;28;20130;-80
2023/04/05 07:06:17;;;;;;;15.00;10.43;;;;;;;8.27;42.00;101406.63;4985057;28;20125;-81
2023/04/05 07:08:46;;;;;;;18.90;11.27;;;;;;;8.52;41.61;101426.22;4990237;28;20131;-79
2023/04/05 07:11:14;;;;;;;27.02;11.05;;;;;;;8.47;40.51;101444.16;4986394;28;20338;-80
2023/04/05 07:13:43;;;;;;;24.52;11.70;;;;;;;8.26;40.57;101426.09;4979278;28;20093;-79
2023/04/05 07:16:13;;;;;;;17.15;10.80;;;;;;;8.30;40.64;101422.31;4989621;28;20121;-79
2023/04/05 07:18:40;;;;;;;18.08;10.75;;;;;;;8.33;40.52;101414.16;4972180;28;20057;-81
2023/04/05 07:21:07;;;;;;;19.63;10.23;;;;;;;8.31;41.22;101407.28;4971896;28;20053;-80
2023/04/05 07:23:34;;;;;;;18.13;10.52;;;;;;;8.52;40.89;101434.16;4970631;28;20472;-79
2023/04/05 07:26:06;;;;;;;19.90;10.88;;;;;;;8.59;40.00;101446.00;4972513;28;20387;-79
2023/04/05 07:28:41;;;;;;;21.33;10.75;;;;;;;8.50;40.22;101433.41;4973761;28;20377;-79
2023/04/05 07:31:13;;;;;;;15.18;10.57;;;;;;;8.55;40.35;101452.47;4993853;28;20069;-83
2023/04/05 07:33:46;;;;;;;18.10;10.63;;;;;;;8.38;40.15;101428.91;4967593;28;20061;-79
2023/04/05 07:36:16;;;;;;;20.75;10.95;;;;;;;8.24;40.61;101396.25;4976236;28;20080;-79
2023/04/05 07:38:46;;;;;;;17.45;10.57;;;;;;;8.71;40.92;101457.56;4986742;28;20058;-78
2023/04/05 07:41:18;;;;;;;19.23;11.63;;;;;;;8.67;41.41;101456.94;4991619;28;20053;-79
2023/04/05 07:43:46;;;;;;;23.10;12.10;;;;;;;8.58;41.70;101443.47;4993928;28;20511;-80
2023/04/05 07:46:23;;;;;;;29.95;13.20;;;;;;;8.61;41.72;101452.03;4997403;28;20041;-80
2023/04/05 07:48:52;;;;;;;19.08;11.88;;;;;;;8.69;41.77;101449.75;4987362;28;20053;-81
2023/04/05 07:51:21;;;;;;;16.65;11.32;;;;;;;7.46;41.44;101240.16;4987781;28;20100;-81
2023/04/05 07:53:48;;;;;;;18.58;12.95;;;;;;;8.76;41.05;101456.31;4972561;28;20054;-81
2023/04/05 07:56:17;;;;;;;17.92;12.65;;;;;;;8.78;41.27;101467.63;4985251;28;20481;-81
2023/04/05 07:58:44;;;;;;;28.60;12.13;;;;;;;8.73;41.18;101461.81;4978386;28;20472;-82
2023/04/05 08:01:16;;;;;;;17.58;11.70;;;;;;;8.74;41.18;101426.44;4988540;28;20290;-82
2023/04/05 08:03:46;;;;;;;22.27;11.90;;;;;;;8.80;41.01;101433.13;4988626;28;20408;-80
2023/04/05 08:06:33;;;;;;;18.60;12.85;;;;;;;8.53;40.93;101396.13;4983133;28;20354;-79
2023/04/05 08:09:02;;;;;;;21.80;13.50;;;;;;;8.96;41.91;101472.66;4986173;28;20281;-81
2023/04/05 08:11:34;;;;;;;28.30;13.25;;;;;;;8.97;42.40;101469.03;4968239;28;20129;-81
2023/04/05 08:14:08;;;;;;;25.27;13.77;;;;;;;8.69;41.83;101417.97;4976490;28;20437;-80
2023/04/05 08:16:34;;;;;;;19.48;11.80;;;;;;;9.08;42.13;101477.09;4982627;28;20443;-80
2023/04/05 08:19:05;;;;;;;21.05;12.70;;;;;;;8.99;41.43;101449.44;4987917;28;20669;-78
2023/04/05 08:21:31;;;;;;;18.65;12.68;;;;;;;9.14;41.59;101474.03;4973318;28;20172;-80
2023/04/05 08:23:58;;;;;;;16.00;11.38;;;;;;;9.10;41.19;101469.03;4979304;28;20049;-80
2023/04/05 08:26:34;;;;;;;19.95;12.27;;;;;;;9.22;41.89;101462.03;4967422;28;20495;-79
2023/04/05 08:29:09;;;;;;;16.08;11.23;;;;;;;9.24;41.02;101439.78;4986207;28;20366;-80
2023/04/05 08:31:41;;;;;;;16.88;11.70;;;;;;;9.36;41.03;101485.78;4997202;28;20501;-79
2023/04/05 08:34:11;;;;;;;23.00;11.77;;;;;;;9.30;41.54;101475.63;4988414;28;20064;-80
2023/04/05 08:36:38;;;;;;;22.80;12.07;;;;;;;9.11;41.45;101455.69;4985540;28;20100;-80
2023/04/05 08:39:07;;;;;;;19.33;12.02;;;;;;;9.31;41.72;101480.81;4987749;28;20057;-81
2023/04/05 08:41:46;;;;;;;19.77;12.02;;;;;;;8.40;41.18;101342.34;4982596;28;20049;-80
2023/04/05 08:44:14;;;;;;;15.35;11.05;;;;;;;9.26;42.31;101482.94;4981282;28;20286;-80
2023/04/05 08:46:42;;;;;;;17.67;12.18;;;;;;;8.90;42.41;101420.09;4983480;28;20046;-78
2023/04/05 08:49:10;;;;;;;19.73;12.55;;;;;;;9.39;42.15;101493.50;4981841;28;20334;-80
2023/04/05 08:51:39;;;;;;;19.70;13.02;;;;;;;9.47;41.53;101485.06;4981143;28;20347;-82
2023/04/05 08:54:08;;;;;;;16.42;11.70;;;;;;;8.97;41.62;101394.88;4972479;28;20045;-81
2023/04/05 08:56:37;;;;;;;20.50;12.35;;;;;;;9.65;41.57;101485.53;4980240;28;20050;-80
2023/04/05 08:59:06;;;;;;;22.42;11.65;;;;;;;9.71;41.24;101480.66;4968344;28;20328;-79
2023/04/05 09:01:44;;;;;;;13.30;11.02;;;;;;;9.85;41.47;101466.38;4967981;28;20050;-82
2023/04/05 09:04:43;;;;;;;16.15;10.18;;;;;;;9.90;40.92;101445.69;4970146;28;20069;-82
2023/04/05 09:07:20;;;;;;;19.05;11.30;;;;;;;10.09;40.49;101447.00;4978602;28;20046;-82
2023/04/05 09:10:04;;;;;;;17.80;12.18;;;;;;;10.40;40.32;101477.47;4983692;28;20042;-82
2023/04/05 09:12:35;;;;;;;16.52;10.75;;;;;;;9.18;40.31;101260.94;4999920;28;20317;-81
2023/04/05 09:15:10;;;;;;;17.77;11.48;;;;;;;10.30;40.03;101453.41;4991392;28;20398;-82
2023/04/05 09:17:38;;;;;;;22.38;11.82;;;;;;;10.50;40.10;101485.59;4975763;28;20133;-82
2023/04/05 09:20:11;;;;;;;20.02;12.18;;;;;;;10.55;40.38;101480.78;4990742;28;20538;-82
2023/04/05 09:22:45;;;;;;;20.02;10.98;;;;;;;10.63;40.04;101486.34;4986454;28;20052;-82
2023/04/05 09:25:37;;;;;;;16.60;10.80;;;;;;;10.56;39.90;101456.78;4995635;28;20170;-83
2023/04/05 09:28:16;;;;;;;15.40;10.23;;;;;;;10.62;39.35;101445.69;4967954;28;20428;-83
2023/04/05 09:30:46;;;;;;;14.20;10.95;;;;;;;10.87;39.71;101465.94;4967372;28;20238;-82
2023/04/05 09:33:21;;;;;;;21.75;12.52;;;;;;;11.09;39.86;101480.19;4986191;28;20065;-81
2023/04/05 09:35:50;;;;;;;15.00;10.45;;;;;;;11.06;39.80;101449.41;4972255;28;20124;-81
2023/04/05 09:38:17;;;;;;;22.75;11.73;;;;;;;11.10;38.51;101407.50;4963421;28;20050;-82
2023/04/05 09:40:51;;;;;;;15.98;11.45;;;;;;;10.36;38.79;101258.34;4964512;28;20056;-81
2023/04/05 09:43:36;;;;;;;19.02;11.48;;;;;;;11.72;38.86;101468.16;4980602;28;20551;-80
2023/04/05 09:46:03;;;;;;;15.35;10.63;;;;;;;10.87;37.82;101295.06;4965303;28;20059;-83
2023/04/05 09:48:48;;;;;;;13.38;9.68;;;;;;;12.00;35.60;101457.97;4965822;28;20397;-82
2023/04/05 09:51:16;;;;;;;13.02;8.80;;;;;;;11.50;34.69;101337.84;4966561;28;20074;-81
2023/04/05 09:54:03;;;;;;;19.45;9.88;;;;;;;12.48;34.61;101452.25;4964596;28;20309;-80
2023/04/05 09:56:34;;;;;;;19.48;10.15;;;;;;;12.33;34.13;101418.88;4960213;28;20066;-81
2023/04/05 09:59:11;;;;;;;13.18;8.80;;;;;;;12.38;33.88;101425.53;4963066;28;20518;-79
2023/04/05 10:01:42;;;;;;;11.40;7.60;;;;;;;12.16;32.23;101407.84;4966392;28;20042;-82
2023/04/05 10:04:18;;;;;;;8.45;7.20;;;;;;;12.13;32.84;101370.81;4955660;28;20142;-82
2023/04/05 10:06:45;;;;;;;12.15;7.82;;;;;;;12.09;31.95;101357.91;4987915;28;20046;-81
2023/04/05 10:09:18;;;;;;;9.43;7.32;;;;;;;12.51;32.26;101433.34;4984520;28;20453;-81
2023/04/05 10:11:45;;;;;;;13.55;8.27;;;;;;;12.45;32.29;101423.22;4980516;28;20532;-80
2023/04/05 10:14:13;;;;;;;12.13;7.80;;;;;;;12.54;31.54;101445.53;4984055;28;20508;-81
2023/04/05 10:16:56;;;;;;;10.77;7.82;;;;;;;12.42;31.48;101372.84;4973583;28;20141;-82
2023/04/05 10:19:31;;;;;;;9.77;7.45;;;;;;;13.02;30.93;101427.22;4972033;28;20247;-83
2023/04/05 10:22:01;;;;;;;12.60;7.95;;;;;;;13.36;30.59;101444.81;4979785;28;20428;-80
2023/04/05 10:24:52;;;;;;;12.07;7.88;;;;;;;13.48;29.72;101403.72;4965604;28;20054;-83
2023/04/05 10:27:29;;;;;;;11.90;8.48;;;;;;;13.61;28.94;101427.47;4985086;28;20054;-84
2023/04/05 10:30:07;;;;;;;12.05;7.75;;;;;;;13.51;28.88;101386.59;4968833;28;20701;-83
2023/04/05 10:33:02;;;;;;;12.20;7.82;;;;;;;14.01;28.64;101432.78;4976469;28;20084;-84
2023/04/05 10:35:54;;;;;;;12.93;7.80;;;;;;;14.04;28.15;101429.81;4960616;28;20058;-84
2023/04/05 10:38:43;;;;;;;11.20;7.22;;;;;;;14.07;28.17;101404.66;4967775;28;20416;-84
2023/04/05 10:41:13;;;;;;;10.77;7.35;;;;;;;13.75;27.91;101367.56;4971408;28;20427;-81
2023/04/05 10:43:44;;;;;;;9.13;6.88;;;;;;;13.63;28.06;101372.16;4973445;28;20057;-81
2023/04/05 10:46:20;;;;;;;8.30;6.68;;;;;;;13.32;27.16;101329.53;4969173;28;20050;-83
2023/04/05 10:49:00;;;;;;;14.18;7.45;;;;;;;13.60;26.63;101436.47;4962842;28;20082;-80
2023/04/05 10:51:30;;;;;;;10.25;6.47;;;;;;;12.64;26.74;101243.16;4977223;28;20057;-80
2023/04/05 10:53:59;;;;;;;10.95;7.18;;;;;;;12.97;26.66;101266.84;4986184;28;20129;-80
2023/04/05 10:56:26;;;;;;;14.52;7.38;;;;;;;13.99;27.09;101394.69;4985226;28;20065;-80
2023/04/05 10:59:00;;;;;;;17.63;7.45;;;;;;;14.37;26.38;101418.84;4982890;28;20054;-84
2023/04/05 11:01:31;;;;;;;10.18;7.00;;;;;;;14.42;26.79;101419.31;4979449;28;20461;-83
2023/04/05 11:04:30;;;;;;;17.13;7.30;;;;;;;14.44;26.56;101409.28;4984429;28;20340;-83
2023/04/05 11:07:18;;;;;;;12.23;7.25;;;;;;;14.14;26.96;101391.59;4964983;28;20062;-76
2023/04/05 11:10:00;;;;;;;12.85;7.65;;;;;;;14.35;27.22;101415.50;4966067;28;20084;-81
2023/04/05 11:12:55;;;;;;;8.10;6.82;;;;;;;14.16;26.85;101361.09;4984556;28;20107;-82
2023/04/05 11:15:26;;;;;;;10.45;7.30;;;;;;;14.43;27.00;101410.28;4966636;28;20050;-81
2023/04/05 11:18:10;;;;;;;11.45;7.65;;;;;;;14.49;26.09;101407.03;4967863;28;20061;-80
2023/04/05 11:21:06;;;;;;;13.05;6.85;;;;;;;14.68;25.54;101379.47;4973620;28;20061;-85
2023/04/05 11:24:02;;;;;;;10.57;6.82;;;;;;;15.04;24.82;101412.56;4970408;28;20081;-79
2023/04/05 11:26:54;;;;;;;9.95;6.80;;;;;;;15.03;24.45;101408.22;4972097;28;20088;-82
2023/04/05 11:29:49;;;;;;;12.23;7.25;;;;;;;14.96;24.49;101412.47;4967515;28;20421;-81
2023/04/05 11:32:16;;;;;;;8.27;6.68;;;;;;;14.33;25.21;101290.09;4966375;28;20126;-81
2023/04/05 11:34:44;;;;;;;9.30;5.90;;;;;;;15.00;25.03;101380.94;4984715;28;20581;-83
2023/04/05 11:37:14;;;;;;;9.95;6.30;;;;;;;15.20;24.81;101382.56;4965890;28;20042;-82
2023/04/05 11:39:48;;;;;;;7.88;6.72;;;;;;;15.35;24.15;101393.59;4982832;28;20187;-82
2023/04/05 11:42:35;;;;;;;15.23;6.53;;;;;;;15.58;24.01;101404.72;4979813;28;20089;-82
2023/04/05 11:45:08;;;;;;;8.57;6.60;;;;;;;15.27;23.35;101337.34;4973871;28;20444;-81